• Join FlightAware (Why Join?)
  • Login
  • US Flag 
08:35AM EDT


 

Airport Tracker/Info


-or-


 

Live Flight TrackerFlight Track Log ✈ EJA831 ✈ 29-Mar-2014 ✈ KISM - KTEB

Flight Track Log - Related Links

Times and Time Zones

All times are in EDT time to prevent confusion due to time zone crossing. See the EJA831 flight status page for this flight to view local times or setup timezone preferences in your user account.

Time Position Orientation Groundspeed Altitude Reporting Facility
EDT Latitude Longitude Course Direction KTS MPH feet Rate Location/Type
05:14PM 28.2667 -81.4500 206° Southwest 162 186 2,000  Level Orlando TRACON
05:15PM 28.2667 -81.5000 270° West 182 209 4,000 1,740 Climbing Orlando TRACON
05:16PM 28.2833 -81.5667 286° West 198 228 5,500 1,980 Climbing Orlando TRACON
05:17PM 28.3500 -81.5667 360° North 253 291 8,100 2,400 Climbing Orlando TRACON
05:20PM 28.5417 -81.5622 North 298 343 13,800 2,340 Climbing Jacksonville Center
05:21PM 28.6314 -81.5608 North 310 357 16,100 2,100 Climbing Jacksonville Center
05:22PM 28.7231 -81.5572 North 321 369 18,100 2,040 Climbing Jacksonville Center
05:23PM 28.8192 -81.5536 North 332 382 20,200 1,860 Climbing Jacksonville Center
05:24PM 28.9214 -81.5522 North 339 390 21,900 1,500 Climbing Jacksonville Center
05:25PM 29.0236 -81.5486 North 356 410 23,300 1,380 Climbing Jacksonville Center
05:26PM 29.1342 -81.5447 North 368 423 24,700 1,260 Climbing Jacksonville Center
05:27PM 29.2303 -81.5481 358° North 382 440 25,900 1,260 Climbing Jacksonville Center
05:28PM 29.3411 -81.5633 353° North 387 445 27,300 1,380 Climbing Jacksonville Center
05:29PM 29.4514 -81.5331 13° North 387 445 28,700 1,260 Climbing Jacksonville Center
05:30PM 29.5619 -81.5339 360° North 387 445 29,900 1,080 Climbing Jacksonville Center
05:31PM 29.6767 -81.5325 North 392 451 30,900 960 Climbing Jacksonville Center
05:32PM 29.7917 -81.5283 North 404 465 31,900 780 Climbing Jacksonville Center
05:33PM 29.9064 -81.5244 North 404 465 32,500 540 Climbing Jacksonville Center
05:34PM 30.0378 -81.5203 North 412 474 33,000 240 Climbing Jacksonville Center
05:35PM 30.1589 -81.5161 North 423 487 33,000  Level Jacksonville Center
05:36PM 30.2842 -81.5094 North 435 501 33,000 240 Level Jacksonville Center
05:37PM 30.4072 -81.5028 North 440 506 33,500 720 Climbing Jacksonville Center
05:38PM 30.5283 -81.4961 North 440 506 34,500 960 Climbing Jacksonville Center
05:39PM 30.6472 -81.4847 North 429 494 35,500 960 Climbing Jacksonville Center
05:40PM 30.7661 -81.4783 North 429 494 36,500 960 Climbing Jacksonville Center
05:41PM 30.8828 -81.4669 North 423 487 37,500 720 Climbing Jacksonville Center
05:42PM 31.0017 -81.4578 North 423 487 38,000 480 Climbing Jacksonville Center
05:43PM 31.1247 -81.4486 North 423 487 38,500 480 Climbing Jacksonville Center
05:44PM 31.2478 -81.4394 North 434 499 39,000 480 Climbing Jacksonville Center
05:45PM 31.3686 -81.4058 13° North 445 512 39,500 480 Climbing Jacksonville Center
05:46PM 31.4811 -81.3772 12° North 452 520 40,000 540 Climbing Jacksonville Center
05:47PM 31.6183 -81.3408 13° North 452 520 40,600 480 Climbing Jacksonville Center
05:48PM 31.7308 -81.3122 12° North 447 514 41,000 180 Climbing Jacksonville Center
05:49PM 31.8639 -81.2756 13° North 452 520 41,000  Level Jacksonville Center
05:50PM 31.9931 -81.2417 13° North 452 520 41,000  Level Jacksonville Center
05:51PM 32.1178 -81.2075 13° North 458 527 41,000  Level Jacksonville Center
05:52PM 32.2378 -81.1339 27° Northeast 458 527 41,000  Level Jacksonville Center
05:53PM 32.3433 -81.0606 30° Northeast 481 554 41,000  Level Jacksonville Center
05:54PM 32.4672 -80.9694 32° Northeast 481 554 41,000  Level Jacksonville Center
05:55PM 32.5828 -80.8858 31° Northeast 481 554 41,000  Level Jacksonville Center
05:56PM 32.6961 -80.8017 32° Northeast 481 554 41,000  Level Jacksonville Center
05:57PM 32.8117 -80.7200 31° Northeast 481 554 41,000  Level Jacksonville Center
05:58PM 32.9106 -80.6458 32° Northeast 476 548 41,000  Level Jacksonville Center
05:59PM 33.0261 -80.5661 30° Northeast 476 548 41,000  Level Jacksonville Center
06:00PM 33.1414 -80.4836 31° Northeast 476 548 41,000  Level Jacksonville Center
06:01PM 33.2567 -80.3961 32° Northeast 476 548 41,000  Level Jacksonville Center
06:02PM 33.3697 -80.3108 32° Northeast 476 548 41,000  Level Jacksonville Center
06:03PM 33.4828 -80.2256 32° Northeast 476 548 41,000  Level Jacksonville Center
06:04PM 33.5936 -80.1425 32° Northeast 471 542 41,000  Level Jacksonville Center
06:05PM 33.7064 -80.0589 32° Northeast 471 542 41,000  Level Jacksonville Center
06:06PM 33.8192 -79.9703 33° Northeast 471 542 41,000  Level Jacksonville Center
06:07PM 33.9342 -79.8864 31° Northeast 471 542 41,000  Level Jacksonville Center
06:09PM 34.1892 -79.6942 32° Northeast 470 541 41,000  Level Washington Center
06:10PM 34.3086 -79.6169 28° Northeast 481 554 41,000  Level Washington Center
06:11PM 34.4317 -79.5525 23° Northeast 481 554 41,000  Level Washington Center
06:12PM 34.5547 -79.4906 23° Northeast 475 547 41,000  Level Washington Center
06:13PM 34.6778 -79.4256 23° Northeast 475 547 41,000  Level Washington Center
06:14PM 34.8011 -79.3606 23° Northeast 475 547 41,000  Level Washington Center
06:15PM 34.9219 -79.2953 24° Northeast 475 547 41,000  Level Washington Center
06:16PM 35.0469 -79.2325 22° Northeast 475 547 41,000  Level Washington Center
06:17PM 35.1700 -79.1644 24° Northeast 475 547 41,000  Level Washington Center
06:18PM 35.2931 -79.1011 23° Northeast 475 547 41,000  Level Washington Center
06:19PM 35.4158 -79.0353 24° Northeast 480 552 41,000  Level Washington Center
06:20PM 35.5386 -78.9717 23° Northeast 480 552 41,000  Level Washington Center
06:21PM 35.6617 -78.9028 24° Northeast 480 552 41,000  Level Washington Center
06:22PM 35.7825 -78.8361 24° Northeast 480 552 41,000 -60 Level Washington Center
06:23PM 35.9031 -78.7692 24° Northeast 480 552 40,900 -360 Descending Washington Center
06:24PM 36.0261 -78.6997 25° Northeast 480 552 40,300 -480 Descending Washington Center
06:25PM 36.1508 -78.6300 24° Northeast 480 552 40,000 -180 Descending Washington Center
06:26PM 36.2736 -78.5600 25° Northeast 485 558 40,000  Level Washington Center
06:27PM 36.3900 -78.4922 25° Northeast 478 550 40,000  Level Washington Center
06:28PM 36.5022 -78.4292 24° Northeast 454 522 40,000  Level Washington Center
06:29PM 36.6142 -78.3658 24° Northeast 439 505 40,000  Level Washington Center
06:30PM 36.7328 -78.2950 26° Northeast 434 499 40,000  Level Washington Center
06:31PM 36.8406 -78.2339 24° Northeast 428 493 40,000  Level Washington Center
06:32PM 36.9292 -78.1822 25° Northeast 428 493 40,000  Level Washington Center
06:33PM 37.0667 -78.1011 25° Northeast 433 498 40,000  Level Washington Center
06:34PM 37.1586 -77.9869 45° Northeast 455 524 40,000  Level Washington Center
06:35PM 37.2178 -77.8400 63° Northeast 445 512 40,000  Level Washington Center
06:36PM 37.3319 -77.7572 30° Northeast 452 520 40,000  Level Washington Center
06:37PM 37.4483 -77.7761 353° North 395 455 40,000  Level Washington Center
06:38PM 37.5603 -77.8239 341° North 395 455 40,000  Level Washington Center
06:39PM 37.6792 -77.8142 North 410 472 40,000  Level Washington Center
06:40PM 37.7894 -77.7228 33° Northeast 428 493 40,000  Level Washington Center
06:41PM 37.8892 -77.6178 40° Northeast 440 506 40,000  Level Washington Center
06:42PM 37.9911 -77.5100 40° Northeast 452 520 40,000  Level Washington Center
06:43PM 38.0908 -77.4017 41° Northeast 464 534 40,000  Level Washington Center
06:44PM 38.1925 -77.2958 39° Northeast 470 541 40,000  Level Washington Center
06:45PM 38.3061 -77.2164 29° Northeast 470 541 40,000  Level Washington Center
06:46PM 38.4278 -77.1553 21° North 460 529 40,000 -780 Level Washington Center
06:47PM 38.5497 -77.0889 23° Northeast 460 529 38,500 -1,620 Descending Washington Center
06:48PM 38.6367 -76.9578 50° Northeast 463 533 36,800 -1,260 Descending Washington Center
06:49PM 38.6781 -76.8017 71° East 445 512 36,000 -780 Descending Washington Center
06:50PM 38.7147 -76.6533 72° East 434 499 35,300 -1,260 Descending Washington Center
06:51PM 38.7908 -76.5186 54° Northeast 452 520 33,500 -2,160 Descending Washington Center
06:52PM 38.9061 -76.4319 30° Northeast 452 520 31,100 -2,460 Descending Washington Center
06:53PM 39.0172 -76.3397 33° Northeast 464 534 28,700 -2,460 Descending Washington Center
06:54PM 39.1283 -76.2525 31° Northeast 464 534 26,200 -2,280 Descending Washington Center
06:55PM 39.2267 -76.1489 39° Northeast 464 534 24,100 -1,200 Descending Washington Center
06:56PM 39.3189 -76.0503 40° Northeast 452 520 23,900 -1,560 Descending Washington Center
06:58PM 39.4833 -75.8833 38° Northeast 424 488 19,900 -2,340 Descending Philadelphia TRACON
06:59PM 39.5833 -75.8000 33° Northeast 402 463 17,700 -2,280 Descending Philadelphia TRACON
07:00PM 39.6667 -75.7167 38° Northeast 399 459 15,400 -2,100 Descending Philadelphia TRACON
07:01PM 39.7500 -75.6333 38° Northeast 367 422 13,500 -1,320 Descending Philadelphia TRACON
07:02PM 39.8333 -75.5667 32° Northeast 368 423 12,900 -360 Descending Philadelphia TRACON
07:03PM 39.9167 -75.4833 37° Northeast 386 444 12,900  Level Philadelphia TRACON
07:04PM 40.0000 -75.4167 31° Northeast 380 437 12,900  Level Philadelphia TRACON
07:05PM 40.0833 -75.3333 37° Northeast 377 434 12,900 -300 Level Philadelphia TRACON
07:06PM 40.1667 -75.2500 37° Northeast 374 430 12,400 -1,020 Descending Philadelphia TRACON
07:07PM 40.2500 -75.1833 31° Northeast 327 376 10,900 -1,620 Descending Philadelphia TRACON
07:08PM 40.3167 -75.1167 37° Northeast 330 380 9,200 -1,620 Descending Philadelphia TRACON
07:09PM 40.3833 -75.0167 49° Northeast 312 359 7,500 -1,320 Descending New York TRACON
07:10PM 40.4500 -74.9333 44° Northeast 295 339 6,500 -1,680 Descending New York TRACON
07:11PM 40.5000 -74.8667 45° Northeast 288 331 4,200 -1,800 Descending New York TRACON
07:12PM 40.5500 -74.7833 52° Northeast 262 302 3,000 -600 Descending New York TRACON
07:13PM 40.5667 -74.7167 72° East 226 260 3,000  Level New York TRACON
07:14PM 40.6000 -74.6333 62° Northeast 224 258 3,000  Level New York TRACON
07:15PM 40.6167 -74.5667 72° East 220 253 3,000 -540 Level New York TRACON
07:16PM 40.6333 -74.5000 72° East 197 227 2,000 -540 Descending New York TRACON
07:17PM 40.6667 -74.4333 57° Northeast 176 203 2,000  Level New York TRACON
07:18PM 40.6833 -74.3833 66° East 172 198 2,000  Level New York TRACON
07:19PM 40.7000 -74.3167 72° East 178 205 2,000 -240 Level New York TRACON
07:20PM 40.7167 -74.2667 66° East 158 182 1,600 -300 Descending New York TRACON
07:21PM 40.7500 -74.2167 49° Northeast 177 204 1,500 -60 Descending New York TRACON
07:22PM 40.7833 -74.1667 49° Northeast 169 194 1,500 -180 Level New York TRACON
07:23PM 40.8000 -74.1333 57° Northeast 127 146 1,200 -420 Descending New York TRACON
07:24PM 40.8333 -74.1000 37° Northeast 106 122 700 -540 Descending New York TRACON